Time;durP1;ratioP1;P1;durP2;ratioP2;P2;SDS_P1;SDS_P2;PMS_P1;PMS_P2;Temp;Humidity;BMP_temperature;BMP_pressure;BME280_temperature;BME280_humidity;BME280_pressure;Samples;Min_cycle;Max_cycle;Signal;HPM_P1;HPM_P2
2022/02/16 00:00:55;;;;;;;31.67;18.92;;;;;;;;;;5033435;28;20022;-79
2022/02/16 00:03:21;;;;;;;30.38;19.00;;;;;;;;;;5020288;28;20015;-77
2022/02/16 00:05:47;;;;;;;28.83;19.80;;;;;;;;;;5025961;28;20034;-78
2022/02/16 00:08:13;;;;;;;30.67;20.00;;;;;;;;;;5036812;28;20144;-77
2022/02/16 00:10:39;;;;;;;30.33;20.15;;;;;;;;;;5037463;28;20026;-78
2022/02/16 00:13:05;;;;;;;32.90;20.17;;;;;;;;;;5039414;28;20021;-76
2022/02/16 00:15:31;;;;;;;34.90;22.63;;;;;;;;;;5032977;28;20031;-79
2022/02/16 00:17:57;;;;;;;35.72;23.42;;;;;;;;;;5023425;28;20022;-80
2022/02/16 00:20:23;;;;;;;42.80;27.35;;;;;;;;;;5017016;28;20049;-76
2022/02/16 00:22:57;;;;;;;34.33;21.98;;;;;;;;;;5014688;28;20042;-76
2022/02/16 00:25:47;;;;;;;34.83;21.42;;;;;;;;;;4962143;28;20068;-81
2022/02/16 00:28:17;;;;;;;38.75;23.38;;;;;;;;;;4957953;29;20055;-77
2022/02/16 00:30:43;;;;;;;34.60;23.17;;;;;;;;;;4959231;28;20031;-80
2022/02/16 00:33:10;;;;;;;39.90;26.17;;;;;;;;;;4958121;29;20040;-76
2022/02/16 00:35:38;;;;;;;37.50;24.70;;;;;;;;;;4957908;28;20052;-76
2022/02/16 00:38:16;;;;;;;44.08;27.58;;;;;;;;;;4944126;28;20031;-77
2022/02/16 00:40:52;;;;;;;38.22;25.95;;;;;;;;;;4943530;29;20107;-76
2022/02/16 00:43:26;;;;;;;36.10;24.38;;;;;;;;;;4958398;29;20032;-77
2022/02/16 00:45:52;;;;;;;42.97;25.48;;;;;;;;;;4941397;29;20036;-79
2022/02/16 00:48:18;;;;;;;42.67;26.85;;;;;;;;;;4943143;29;20012;-77
2022/02/16 00:50:45;;;;;;;40.03;26.70;;;;;;;;;;4959945;29;20043;-80
2022/02/16 00:53:11;;;;;;;38.13;22.65;;;;;;;;;;4958524;29;20035;-78
2022/02/16 00:55:37;;;;;;;36.55;22.40;;;;;;;;;;4941898;29;20035;-76
2022/02/16 00:58:06;;;;;;;37.78;23.15;;;;;;;;;;4957764;29;20039;-80
2022/02/16 01:00:33;;;;;;;36.65;23.17;;;;;;;;;;4959352;29;20027;-77
2022/02/16 01:03:25;;;;;;;35.00;22.70;;;;;;;;;;4978860;28;20023;-82
2022/02/16 01:06:12;;;;;;;38.97;23.00;;;;;;;;;;4958467;29;20520;-76
2022/02/16 01:08:42;;;;;;;35.55;23.27;;;;;;;;;;4942820;29;20034;-78
2022/02/16 01:11:28;;;;;;;40.17;23.52;;;;;;;;;;4944923;29;20053;-80
2022/02/16 01:13:54;;;;;;;34.78;22.08;;;;;;;;;;4940097;29;20040;-79
2022/02/16 01:16:20;;;;;;;35.63;21.85;;;;;;;;;;4958895;29;20031;-79
2022/02/16 01:18:49;;;;;;;26.45;17.88;;;;;;;;;;4959175;29;20083;-78
2022/02/16 01:21:16;;;;;;;21.33;14.75;;;;;;;;;;4941223;28;20502;-78
2022/02/16 01:23:42;;;;;;;23.80;16.65;;;;;;;;;;4956954;29;20043;-77
2022/02/16 01:26:09;;;;;;;23.00;15.80;;;;;;;;;;4957369;29;20020;-79
2022/02/16 01:28:35;;;;;;;23.17;15.93;;;;;;;;;;4960363;28;20059;-79
2022/02/16 01:31:02;;;;;;;24.58;16.38;;;;;;;;;;5428511;23;20061;-79
2022/02/16 01:33:28;;;;;;;26.73;16.88;;;;;;;;;;4981624;28;20495;-80
2022/02/16 01:35:54;;;;;;;27.27;17.45;;;;;;;;;;4999143;28;20027;-79
2022/02/16 01:38:20;;;;;;;23.50;15.73;;;;;;;;;;4997867;28;20046;-79
2022/02/16 01:40:46;;;;;;;24.13;14.70;;;;;;;;;;4998791;28;20035;-77
2022/02/16 01:43:12;;;;;;;24.70;16.13;;;;;;;;;;4982673;28;20023;-78
2022/02/16 01:45:41;;;;;;;23.08;16.05;;;;;;;;;;4982333;28;20039;-80
2022/02/16 01:48:07;;;;;;;22.42;16.30;;;;;;;;;;4999569;28;20041;-76
2022/02/16 01:50:33;;;;;;;21.45;15.77;;;;;;;;;;4997574;28;20015;-78
2022/02/16 01:52:59;;;;;;;24.05;17.55;;;;;;;;;;4981279;28;20118;-78
2022/02/16 01:55:26;;;;;;;24.05;16.48;;;;;;;;;;4981921;28;20023;-77
2022/02/16 01:57:52;;;;;;;27.67;17.15;;;;;;;;;;4995825;28;20026;-77
2022/02/16 02:00:18;;;;;;;23.13;16.42;;;;;;;;;;4994261;28;20042;-78
2022/02/16 02:02:44;;;;;;;25.05;17.48;;;;;;;;;;4997218;28;20448;-78
2022/02/16 02:05:11;;;;;;;24.95;17.80;;;;;;;;;;4999426;28;20023;-80
2022/02/16 02:07:42;;;;;;;30.00;18.67;;;;;;;;;;4998210;28;20027;-78
2022/02/16 02:10:11;;;;;;;25.00;17.52;;;;;;;;;;4982506;28;20011;-78
2022/02/16 02:12:45;;;;;;;26.58;17.45;;;;;;;;;;4996041;28;20042;-78
2022/02/16 02:15:11;;;;;;;26.60;17.90;;;;;;;;;;4997164;28;20070;-79
2022/02/16 02:17:38;;;;;;;29.05;19.42;;;;;;;;;;4986549;28;20038;-81
2022/02/16 02:20:18;;;;;;;28.75;19.45;;;;;;;;;;4959556;29;20047;-76
2022/02/16 02:22:44;;;;;;;26.42;18.45;;;;;;;;;;4944690;29;20023;-79
2022/02/16 02:25:10;;;;;;;26.23;18.50;;;;;;;;;;4977350;29;20040;-76
2022/02/16 02:27:39;;;;;;;22.92;16.42;;;;;;;;;;4975280;29;20029;-80
2022/02/16 02:30:06;;;;;;;22.98;16.88;;;;;;;;;;4961253;28;20031;-80
2022/02/16 02:32:32;;;;;;;24.90;16.63;;;;;;;;;;4972559;28;20086;-79
2022/02/16 02:34:58;;;;;;;24.35;16.90;;;;;;;;;;4977791;29;20015;-80
2022/02/16 02:37:25;;;;;;;27.35;16.48;;;;;;;;;;4976507;29;20031;-79
2022/02/16 02:39:51;;;;;;;24.45;16.88;;;;;;;;;;4976739;29;20023;-81
2022/02/16 02:42:20;;;;;;;19.52;15.00;;;;;;;;;;4976762;29;20023;-80
2022/02/16 02:44:46;;;;;;;18.80;14.40;;;;;;;;;;4968859;29;20133;-78
2022/02/16 02:47:12;;;;;;;15.30;12.63;;;;;;;;;;4960007;29;20065;-77
2022/02/16 02:49:45;;;;;;;14.63;12.48;;;;;;;;;;4962805;28;20039;-80
2022/02/16 02:52:11;;;;;;;17.45;13.48;;;;;;;;;;4976327;28;20070;-80
2022/02/16 02:54:37;;;;;;;19.30;12.30;;;;;;;;;;4959626;29;20066;-80
2022/02/16 02:57:03;;;;;;;19.20;12.70;;;;;;;;;;4975784;29;20016;-78
2022/02/16 02:59:29;;;;;;;18.95;13.07;;;;;;;;;;4958214;29;20091;-77
2022/02/16 03:01:56;;;;;;;15.55;11.13;;;;;;;;;;4959267;29;20031;-79
2022/02/16 03:04:22;;;;;;;15.93;10.40;;;;;;;;;;4955923;29;20099;-78
2022/02/16 03:06:48;;;;;;;14.80;10.52;;;;;;;;;;4974858;29;20051;-78
2022/02/16 03:09:14;;;;;;;15.75;9.50;;;;;;;;;;4977128;28;20029;-76
2022/02/16 03:11:40;;;;;;;16.50;10.52;;;;;;;;;;4979025;29;20031;-78
2022/02/16 03:14:33;;;;;;;13.50;9.52;;;;;;;;;;4932238;29;20027;-80
2022/02/16 03:17:04;;;;;;;13.02;9.82;;;;;;;;;;4975033;28;20035;-78
2022/02/16 03:19:30;;;;;;;16.92;10.13;;;;;;;;;;4976379;29;20086;-79
2022/02/16 03:21:57;;;;;;;12.65;9.45;;;;;;;;;;4963351;29;20027;-79
2022/02/16 03:24:23;;;;;;;13.43;9.73;;;;;;;;;;4980615;28;20032;-80
2022/02/16 03:26:49;;;;;;;13.43;9.35;;;;;;;;;;4966728;28;20031;-80
2022/02/16 03:29:16;;;;;;;14.80;10.27;;;;;;;;;;4964976;28;20031;-77
2022/02/16 03:31:42;;;;;;;16.00;11.80;;;;;;;;;;4980295;29;20087;-77
2022/02/16 03:34:09;;;;;;;21.35;14.13;;;;;;;;;;4963372;29;20114;-79
2022/02/16 03:36:35;;;;;;;17.63;12.73;;;;;;;;;;4963428;29;20034;-78
2022/02/16 03:39:01;;;;;;;15.63;11.40;;;;;;;;;;4964288;29;20034;-77
2022/02/16 03:41:34;;;;;;;17.20;11.63;;;;;;;;;;4980792;28;20083;-77
2022/02/16 03:44:00;;;;;;;16.67;12.27;;;;;;;;;;4980936;28;20022;-77
2022/02/16 03:46:26;;;;;;;14.45;11.50;;;;;;;;;;4980359;29;20066;-77
2022/02/16 03:48:53;;;;;;;12.20;9.70;;;;;;;;;;4964518;29;20028;-80
2022/02/16 03:51:19;;;;;;;12.93;9.45;;;;;;;;;;4981907;28;20007;-77
2022/02/16 03:53:46;;;;;;;15.35;11.30;;;;;;;;;;4981447;28;20129;-80
2022/02/16 03:56:12;;;;;;;18.23;11.80;;;;;;;;;;4982379;28;20028;-79
2022/02/16 03:58:40;;;;;;;14.57;11.88;;;;;;;;;;5057513;23;20117;-79
2022/02/16 04:01:06;;;;;;;15.55;11.68;;;;;;;;;;5038388;28;20061;-77
2022/02/16 04:03:32;;;;;;;16.65;12.48;;;;;;;;;;5038473;28;20026;-79
2022/02/16 04:05:58;;;;;;;17.92;11.95;;;;;;;;;;5022261;28;20122;-77
2022/02/16 04:08:24;;;;;;;17.08;12.52;;;;;;;;;;5022032;28;20097;-80
2022/02/16 04:10:50;;;;;;;18.25;12.10;;;;;;;;;;5038879;28;20026;-78
2022/02/16 04:13:17;;;;;;;17.90;12.57;;;;;;;;;;5039120;28;20053;-79
2022/02/16 04:15:43;;;;;;;16.15;12.23;;;;;;;;;;5037884;28;20391;-78
2022/02/16 04:18:09;;;;;;;16.98;13.25;;;;;;;;;;5037469;28;20029;-77
2022/02/16 04:20:35;;;;;;;14.80;11.27;;;;;;;;;;5036489;28;20022;-79
2022/02/16 04:23:01;;;;;;;18.20;12.57;;;;;;;;;;5022005;28;20026;-79
2022/02/16 04:25:28;;;;;;;15.40;11.60;;;;;;;;;;5038487;28;20074;-80
2022/02/16 04:27:54;;;;;;;15.38;10.38;;;;;;;;;;5036411;28;20041;-79
2022/02/16 04:30:20;;;;;;;15.00;10.25;;;;;;;;;;5020861;28;20037;-80
2022/02/16 04:32:46;;;;;;;13.38;9.70;;;;;;;;;;5032612;28;20097;-77
2022/02/16 04:35:12;;;;;;;13.98;10.00;;;;;;;;;;5039918;28;20049;-77
2022/02/16 04:37:38;;;;;;;14.55;9.80;;;;;;;;;;5021890;28;20030;-80
2022/02/16 04:40:07;;;;;;;16.75;9.80;;;;;;;;;;5022284;28;20080;-77
2022/02/16 04:42:33;;;;;;;14.30;9.88;;;;;;;;;;5040300;28;20014;-77
2022/02/16 04:44:59;;;;;;;15.20;10.25;;;;;;;;;;5038886;28;20045;-77
2022/02/16 04:47:25;;;;;;;17.45;9.75;;;;;;;;;;5038956;28;20010;-77
2022/02/16 04:49:51;;;;;;;14.55;10.18;;;;;;;;;;5018519;28;20038;-77
2022/02/16 04:52:17;;;;;;;16.35;10.77;;;;;;;;;;5037317;28;20048;-77
2022/02/16 04:54:43;;;;;;;16.52;10.98;;;;;;;;;;5021822;28;20017;-78
2022/02/16 04:57:09;;;;;;;15.02;10.20;;;;;;;;;;5021532;28;20026;-78
2022/02/16 04:59:38;;;;;;;16.90;10.32;;;;;;;;;;5039422;28;20046;-80
2022/02/16 05:02:04;;;;;;;13.10;9.70;;;;;;;;;;5039794;28;20033;-77
2022/02/16 05:04:30;;;;;;;12.15;8.95;;;;;;;;;;5038123;28;20021;-77
2022/02/16 05:06:56;;;;;;;12.73;9.70;;;;;;;;;;5037000;28;20021;-78
2022/02/16 05:09:22;;;;;;;12.10;8.85;;;;;;;;;;5038777;28;20053;-76
2022/02/16 05:12:00;;;;;;;10.60;8.32;;;;;;;;;;5037889;28;20018;-77
2022/02/16 05:14:46;;;;;;;12.77;8.60;;;;;;;;;;5037054;28;20054;-80
2022/02/16 05:17:12;;;;;;;10.18;7.45;;;;;;;;;;5039000;28;20021;-80
2022/02/16 05:19:41;;;;;;;13.35;7.88;;;;;;;;;;5038282;28;20045;-77
2022/02/16 05:22:23;;;;;;;12.35;8.98;;;;;;;;;;5039676;28;20045;-78
2022/02/16 05:24:53;;;;;;;17.20;9.25;;;;;;;;;;5044611;28;20445;-79
2022/02/16 05:27:23;;;;;;;15.73;11.10;;;;;;;;;;5021489;28;20024;-76
2022/02/16 05:29:49;;;;;;;14.43;9.82;;;;;;;;;;5036798;28;20025;-77
2022/02/16 05:32:25;;;;;;;14.30;10.27;;;;;;;;;;5028113;28;20053;-74
2022/02/16 05:34:54;;;;;;;13.00;11.00;;;;;;;;;;5027128;28;20036;-74
2022/02/16 05:37:23;;;;;;;15.65;12.20;;;;;;;;;;5027145;28;20021;-77
2022/02/16 05:39:56;;;;;;;15.85;12.52;;;;;;;;;;5017992;28;20029;-76
2022/02/16 05:42:47;;;;;;;18.25;12.35;;;;;;;;;;5021625;28;20065;-77
2022/02/16 05:45:19;;;;;;;16.70;13.13;;;;;;;;;;5016960;28;20029;-75
2022/02/16 05:47:45;;;;;;;19.00;13.35;;;;;;;;;;5033249;28;20030;-76
2022/02/16 05:50:12;;;;;;;15.82;12.63;;;;;;;;;;5016658;28;20033;-76
2022/02/16 05:52:38;;;;;;;16.33;13.50;;;;;;;;;;5008530;28;20061;-74
2022/02/16 05:55:04;;;;;;;20.05;15.05;;;;;;;;;;5021602;28;20434;-74
2022/02/16 05:57:32;;;;;;;17.00;13.73;;;;;;;;;;5018908;28;20021;-77
2022/02/16 05:59:58;;;;;;;21.60;15.23;;;;;;;;;;5026184;28;20058;-76
2022/02/16 06:02:24;;;;;;;25.48;18.42;;;;;;;;;;5018708;28;20033;-77
2022/02/16 06:05:01;;;;;;;22.23;16.55;;;;;;;;;;5025565;28;20044;-73
2022/02/16 06:07:28;;;;;;;22.67;16.15;;;;;;;;;;5025664;28;20034;-76
2022/02/16 06:09:55;;;;;;;23.60;15.43;;;;;;;;;;5019374;28;20033;-77
2022/02/16 06:12:24;;;;;;;26.95;17.40;;;;;;;;;;5028356;28;20042;-76
2022/02/16 06:14:50;;;;;;;21.92;15.27;;;;;;;;;;5029055;28;20026;-76
2022/02/16 06:17:16;;;;;;;18.42;12.88;;;;;;;;;;5031682;28;20069;-75
2022/02/16 06:19:43;;;;;;;19.98;13.35;;;;;;;;;;5030940;28;20030;-74
2022/02/16 06:22:11;;;;;;;20.48;13.23;;;;;;;;;;5023012;28;20025;-75
2022/02/16 06:24:37;;;;;;;17.30;12.88;;;;;;;;;;5021224;28;20026;-76
2022/02/16 06:27:06;;;;;;;21.20;15.30;;;;;;;;;;5031121;28;20038;-74
2022/02/16 06:29:34;;;;;;;22.38;16.38;;;;;;;;;;5032956;28;20030;-77
2022/02/16 06:32:01;;;;;;;18.17;14.20;;;;;;;;;;5026515;28;20499;-74
2022/02/16 06:34:27;;;;;;;18.02;13.80;;;;;;;;;;5019874;28;20372;-77
2022/02/16 06:36:53;;;;;;;16.50;13.10;;;;;;;;;;5024654;28;20028;-75
2022/02/16 06:39:22;;;;;;;16.27;12.77;;;;;;;;;;5019124;28;20044;-76
2022/02/16 06:41:55;;;;;;;17.70;13.38;;;;;;;;;;5025606;28;20034;-75
2022/02/16 06:44:25;;;;;;;17.13;11.98;;;;;;;;;;5027523;28;20076;-72
2022/02/16 06:46:51;;;;;;;16.60;12.35;;;;;;;;;;5029077;28;20029;-75
2022/02/16 06:49:19;;;;;;;14.15;11.35;;;;;;;;;;5023128;28;20034;-74
2022/02/16 06:51:45;;;;;;;15.80;11.38;;;;;;;;;;5024754;28;20439;-74
2022/02/16 06:54:21;;;;;;;18.67;12.10;;;;;;;;;;5022652;28;20033;-75
2022/02/16 06:56:52;;;;;;;16.27;11.63;;;;;;;;;;5009049;28;20125;-73
2022/02/16 06:59:20;;;;;;;14.90;12.10;;;;;;;;;;5020395;28;20046;-78
2022/02/16 07:01:48;;;;;;;17.77;12.60;;;;;;;;;;5019111;28;20081;-77
2022/02/16 07:04:16;;;;;;;16.25;12.32;;;;;;;;;;5002215;28;20026;-76
2022/02/16 07:06:42;;;;;;;17.00;12.30;;;;;;;;;;5003219;28;20483;-74
2022/02/16 07:09:11;;;;;;;15.95;12.25;;;;;;;;;;5013489;28;20056;-72
2022/02/16 07:11:38;;;;;;;19.15;10.98;;;;;;;;;;5005836;28;20049;-76
2022/02/16 07:14:04;;;;;;;14.02;11.43;;;;;;;;;;5010213;28;20025;-77
2022/02/16 07:16:31;;;;;;;14.23;10.25;;;;;;;;;;5025105;28;20038;-78
2022/02/16 07:18:58;;;;;;;13.63;10.65;;;;;;;;;;5006963;28;20022;-77
2022/02/16 07:21:26;;;;;;;13.75;10.80;;;;;;;;;;5019236;28;20375;-78
2022/02/16 07:24:12;;;;;;;15.45;10.77;;;;;;;;;;5016100;28;20041;-75
2022/02/16 07:26:41;;;;;;;13.75;11.15;;;;;;;;;;5019235;28;20057;-75
2022/02/16 07:29:11;;;;;;;16.90;12.18;;;;;;;;;;5021660;28;20499;-76
2022/02/16 07:31:37;;;;;;;13.48;10.90;;;;;;;;;;5015230;28;20166;-75
2022/02/16 07:34:05;;;;;;;15.80;11.88;;;;;;;;;;5015563;28;20022;-75
2022/02/16 07:36:31;;;;;;;21.73;16.45;;;;;;;;;;5015593;28;20156;-73
2022/02/16 07:38:57;;;;;;;20.83;15.63;;;;;;;;;;5007857;28;20026;-75
2022/02/16 07:41:25;;;;;;;23.48;18.88;;;;;;;;;;5011428;28;20102;-77
2022/02/16 07:43:51;;;;;;;17.73;14.10;;;;;;;;;;5015365;28;20032;-76
2022/02/16 07:46:19;;;;;;;16.95;12.20;;;;;;;;;;5009638;28;20022;-76
2022/02/16 07:48:56;;;;;;;16.45;12.35;;;;;;;;;;5030455;28;20018;-75
2022/02/16 07:51:35;;;;;;;26.02;18.73;;;;;;;;;;5012377;28;20280;-75
2022/02/16 07:54:04;;;;;;;27.15;20.70;;;;;;;;;;5009128;28;20094;-75
2022/02/16 07:56:34;;;;;;;37.00;31.00;;;;;;;;;;5026256;28;20029;-76
2022/02/16 07:59:00;;;;;;;15.40;12.65;;;;;;;;;;4988531;28;20050;-78
2022/02/16 08:01:28;;;;;;;17.08;14.68;;;;;;;;;;5008638;28;20042;-76
2022/02/16 08:07:07;;;;;;;16.20;12.95;;;;;;;;;;4999490;28;20034;-75
2022/02/16 08:09:33;;;;;;;28.55;23.48;;;;;;;;;;4998521;28;20570;-76
2022/02/16 08:11:59;;;;;;;26.60;20.85;;;;;;;;;;5000906;28;20113;-76
2022/02/16 08:14:26;;;;;;;17.40;14.00;;;;;;;;;;4998206;28;20066;-75
2022/02/16 08:16:55;;;;;;;19.40;15.20;;;;;;;;;;4999117;28;20057;-75
2022/02/16 08:19:27;;;;;;;24.27;18.75;;;;;;;;;;4998057;28;20027;-79
2022/02/16 08:21:55;;;;;;;18.15;14.00;;;;;;;;;;4996662;28;20033;-76
2022/02/16 08:24:22;;;;;;;23.90;17.88;;;;;;;;;;5003557;28;20440;-72
2022/02/16 08:26:50;;;;;;;25.05;18.58;;;;;;;;;;5003545;28;20435;-78
2022/02/16 08:29:38;;;;;;;19.02;15.02;;;;;;;;;;5013878;28;20074;-77
2022/02/16 08:32:05;;;;;;;14.73;12.50;;;;;;;;;;5023613;28;20030;-75
2022/02/16 08:34:31;;;;;;;18.23;14.02;;;;;;;;;;5027735;28;20032;-77
2022/02/16 08:37:35;;;;;;;24.83;17.88;;;;;;;;;;5010903;28;20030;-71
2022/02/16 08:40:29;;;;;;;19.75;15.35;;;;;;;;;;4941218;29;20064;-74
2022/02/16 08:42:55;;;;;;;20.38;15.82;;;;;;;;;;4935296;28;20040;-76
2022/02/16 08:45:24;;;;;;;22.27;16.80;;;;;;;;;;4926723;29;21406;-75
2022/02/16 08:47:50;;;;;;;22.67;16.25;;;;;;;;;;4939047;29;20090;-76
2022/02/16 08:50:17;;;;;;;22.60;17.60;;;;;;;;;;4942089;29;20047;-75
2022/02/16 08:52:44;;;;;;;18.80;14.32;;;;;;;;;;4937164;29;20040;-74
2022/02/16 08:55:15;;;;;;;16.92;14.35;;;;;;;;;;4949622;29;20059;-73
2022/02/16 08:57:45;;;;;;;16.27;12.90;;;;;;;;;;4940348;29;20538;-77
2022/02/16 09:00:20;;;;;;;15.98;14.00;;;;;;;;;;4930289;29;20509;-76
2022/02/16 09:02:46;;;;;;;18.90;14.93;;;;;;;;;;4932489;29;20048;-77
2022/02/16 09:05:14;;;;;;;16.90;13.73;;;;;;;;;;4935674;29;20091;-77
2022/02/16 09:07:40;;;;;;;19.67;14.23;;;;;;;;;;4921775;29;20120;-76
2022/02/16 09:10:11;;;;;;;21.90;14.75;;;;;;;;;;4932228;29;20036;-77
2022/02/16 09:12:38;;;;;;;18.58;13.50;;;;;;;;;;4934130;29;20040;-77
2022/02/16 09:15:09;;;;;;;17.55;13.75;;;;;;;;;;4945507;28;20050;-80
2022/02/16 09:17:40;;;;;;;19.33;14.18;;;;;;;;;;5022153;28;20053;-78
2022/02/16 09:20:06;;;;;;;21.92;16.50;;;;;;;;;;5019693;28;20022;-78
2022/02/16 09:22:34;;;;;;;16.92;13.30;;;;;;;;;;5019218;28;20030;-77
2022/02/16 09:25:00;;;;;;;16.80;13.60;;;;;;;;;;5014680;28;20029;-76
2022/02/16 09:27:27;;;;;;;25.58;18.63;;;;;;;;;;5011353;28;20029;-77
2022/02/16 09:29:53;;;;;;;18.17;13.30;;;;;;;;;;5017933;28;20026;-77
2022/02/16 09:32:20;;;;;;;17.88;13.77;;;;;;;;;;5019066;28;20034;-77
2022/02/16 09:34:47;;;;;;;18.77;13.98;;;;;;;;;;5019547;28;20099;-78
2022/02/16 09:37:13;;;;;;;19.75;13.75;;;;;;;;;;5014881;28;20030;-75
2022/02/16 09:39:40;;;;;;;16.95;14.65;;;;;;;;;;5013189;28;20029;-75
2022/02/16 09:42:06;;;;;;;18.00;13.25;;;;;;;;;;5012772;28;20208;-77
2022/02/16 09:44:35;;;;;;;19.33;15.15;;;;;;;;;;5012045;28;20459;-76
2022/02/16 09:47:03;;;;;;;20.55;15.80;;;;;;;;;;5016166;28;20081;-74
2022/02/16 09:49:29;;;;;;;27.80;20.08;;;;;;;;;;5016610;28;20030;-77
2022/02/16 09:51:55;;;;;;;24.42;17.55;;;;;;;;;;5017163;28;20038;-75
2022/02/16 09:54:21;;;;;;;19.95;14.38;;;;;;;;;;5019151;28;20022;-76
2022/02/16 09:56:47;;;;;;;19.52;16.20;;;;;;;;;;5014949;28;20022;-76
2022/02/16 09:59:13;;;;;;;24.90;17.55;;;;;;;;;;5016701;28;20506;-76
2022/02/16 10:01:57;;;;;;;19.73;15.77;;;;;;;;;;5015133;28;20032;-76
2022/02/16 10:04:27;;;;;;;23.48;17.15;;;;;;;;;;5007621;28;20573;-74
2022/02/16 10:06:53;;;;;;;18.40;13.77;;;;;;;;;;5015608;28;20022;-76
2022/02/16 10:09:38;;;;;;;21.10;15.43;;;;;;;;;;4996195;28;20061;-73
2022/02/16 10:12:07;;;;;;;19.35;14.73;;;;;;;;;;4997457;28;20450;-76
2022/02/16 10:14:37;;;;;;;21.08;16.60;;;;;;;;;;5013154;28;20048;-75
2022/02/16 10:17:18;;;;;;;20.00;15.25;;;;;;;;;;4995310;28;20081;-73
2022/02/16 10:19:55;;;;;;;21.00;15.15;;;;;;;;;;5012024;28;20033;-75
2022/02/16 10:22:24;;;;;;;19.95;15.38;;;;;;;;;;5015843;28;20049;-77
2022/02/16 10:24:50;;;;;;;18.67;13.77;;;;;;;;;;4987617;28;20041;-75
2022/02/16 10:27:17;;;;;;;28.05;14.88;;;;;;;;;;5008982;28;20091;-76
2022/02/16 10:29:45;;;;;;;19.10;14.13;;;;;;;;;;5015320;28;20029;-76
2022/02/16 10:32:26;;;;;;;16.48;13.65;;;;;;;;;;5021493;28;20034;-77
2022/02/16 10:35:01;;;;;;;34.97;22.80;;;;;;;;;;5021257;28;20045;-77
2022/02/16 10:37:30;;;;;;;24.70;16.30;;;;;;;;;;5025374;28;20021;-78
2022/02/16 10:40:06;;;;;;;21.73;15.60;;;;;;;;;;5022024;28;20085;-76
2022/02/16 10:42:37;;;;;;;21.38;15.60;;;;;;;;;;5014211;28;20024;-75
2022/02/16 10:45:11;;;;;;;16.08;12.60;;;;;;;;;;5008870;28;20018;-75
2022/02/16 10:50:13;;;;;;;17.85;12.07;;;;;;;;;;5170528;23;19922;-76
2022/02/16 10:52:51;;;;;;;21.00;11.48;;;;;;;;;;4957586;28;20046;-75
2022/02/16 10:55:17;;;;;;;21.67;12.30;;;;;;;;;;4966420;28;20025;-75
2022/02/16 10:57:43;;;;;;;41.10;27.05;;;;;;;;;;4979373;28;20037;-76
2022/02/16 11:00:09;;;;;;;18.98;12.18;;;;;;;;;;4975149;28;20023;-76
2022/02/16 11:02:41;;;;;;;20.70;11.95;;;;;;;;;;4959150;28;20056;-76
2022/02/16 11:05:09;;;;;;;14.95;10.95;;;;;;;;;;4960383;28;20038;-75
2022/02/16 11:07:36;;;;;;;18.55;11.52;;;;;;;;;;4959434;28;20027;-75
2022/02/16 11:10:06;;;;;;;19.20;13.18;;;;;;;;;;4964969;28;20027;-78
2022/02/16 11:12:33;;;;;;;17.80;12.88;;;;;;;;;;4966086;28;20027;-77
2022/02/16 11:15:01;;;;;;;20.48;15.38;;;;;;;;;;4961623;28;20042;-77
2022/02/16 11:17:27;;;;;;;25.25;18.33;;;;;;;;;;4984505;28;20081;-76
2022/02/16 11:20:13;;;;;;;15.23;11.32;;;;;;;;;;4985363;28;20031;-78
2022/02/16 11:22:55;;;;;;;14.05;10.35;;;;;;;;;;4978565;28;20058;-80
2022/02/16 11:26:09;;;;;;;19.95;11.50;;;;;;;;;;4972683;28;20015;-78
2022/02/16 11:29:17;;;;;;;16.83;11.43;;;;;;;;;;4967119;28;20062;-79
2022/02/16 11:31:44;;;;;;;24.00;11.57;;;;;;;;;;4935588;29;20043;-74
2022/02/16 11:34:20;;;;;;;15.65;10.90;;;;;;;;;;4942072;29;20066;-76
2022/02/16 11:36:52;;;;;;;12.70;10.93;;;;;;;;;;4954625;29;20044;-79
2022/02/16 11:39:36;;;;;;;14.02;11.13;;;;;;;;;;4930771;29;20036;-76
2022/02/16 11:42:07;;;;;;;19.92;10.80;;;;;;;;;;4939230;29;20090;-77
2022/02/16 11:44:51;;;;;;;22.33;12.48;;;;;;;;;;4928828;29;20027;-77
2022/02/16 11:47:36;;;;;;;13.80;9.30;;;;;;;;;;4934990;29;20138;-79
2022/02/16 11:50:14;;;;;;;12.77;10.00;;;;;;;;;;4950447;29;20544;-75
2022/02/16 11:52:56;;;;;;;20.70;10.52;;;;;;;;;;4939696;29;20703;-77
2022/02/16 11:55:29;;;;;;;14.30;9.45;;;;;;;;;;4940249;29;20548;-73
2022/02/16 11:58:13;;;;;;;16.53;9.60;;;;;;;;;;4956850;29;20107;-74
2022/02/16 12:00:51;;;;;;;12.40;8.85;;;;;;;;;;4962855;29;20296;-79
2022/02/16 12:03:20;;;;;;;12.57;10.65;;;;;;;;;;5537355;22;20013;-77
2022/02/16 12:05:53;;;;;;;12.18;9.60;;;;;;;;;;4977549;28;20039;-78
2022/02/16 12:08:21;;;;;;;16.25;9.88;;;;;;;;;;4950103;29;20027;-75
2022/02/16 12:10:52;;;;;;;14.27;10.00;;;;;;;;;;4971912;29;20030;-76
2022/02/16 12:13:44;;;;;;;13.35;9.18;;;;;;;;;;4972328;29;20023;-75
2022/02/16 12:16:13;;;;;;;19.60;9.55;;;;;;;;;;4876610;29;20042;-73
2022/02/16 12:18:40;;;;;;;9.50;6.43;;;;;;;;;;4911176;29;20013;-74
2022/02/16 12:21:06;;;;;;;7.13;5.25;;;;;;;;;;4895451;29;20037;-73
2022/02/16 12:23:39;;;;;;;7.72;4.95;;;;;;;;;;4913162;29;20037;-73
2022/02/16 12:26:08;;;;;;;5.50;3.63;;;;;;;;;;4901775;29;20025;-77
2022/02/16 12:28:45;;;;;;;18.63;10.77;;;;;;;;;;4904722;29;20048;-74
2022/02/16 12:31:11;;;;;;;19.27;9.60;;;;;;;;;;4908988;29;20019;-73
2022/02/16 12:33:37;;;;;;;9.32;6.30;;;;;;;;;;4912183;29;20056;-74
2022/02/16 12:36:07;;;;;;;7.03;5.40;;;;;;;;;;4912124;29;20013;-72
2022/02/16 12:38:33;;;;;;;10.68;4.32;;;;;;;;;;4898533;29;20044;-72
2022/02/16 12:41:06;;;;;;;9.82;4.20;;;;;;;;;;4885367;29;20073;-75
2022/02/16 12:43:32;;;;;;;13.27;4.18;;;;;;;;;;4898818;29;20033;-78
2022/02/16 12:45:59;;;;;;;8.35;4.20;;;;;;;;;;4911466;29;20077;-75
2022/02/16 12:48:25;;;;;;;8.13;4.97;;;;;;;;;;4919692;29;20044;-73
2022/02/16 12:51:02;;;;;;;10.35;4.75;;;;;;;;;;4916100;29;20033;-78
2022/02/16 12:53:36;;;;;;;5.60;4.03;;;;;;;;;;4944420;29;20042;-78
2022/02/16 12:56:08;;;;;;;8.48;4.78;;;;;;;;;;4958342;29;20031;-77
2022/02/16 12:58:34;;;;;;;7.20;5.20;;;;;;;;;;4940092;29;20309;-75
2022/02/16 13:01:03;;;;;;;11.20;5.55;;;;;;;;;;4956401;29;20016;-73
2022/02/16 13:03:31;;;;;;;10.95;5.05;;;;;;;;;;4921749;29;20056;-73
2022/02/16 13:05:57;;;;;;;8.77;5.45;;;;;;;;;;4931090;29;20035;-73
2022/02/16 13:08:26;;;;;;;12.00;5.30;;;;;;;;;;4956708;29;20055;-73
2022/02/16 13:10:52;;;;;;;8.68;4.88;;;;;;;;;;4956685;29;20137;-79
2022/02/16 13:13:32;;;;;;;16.88;6.93;;;;;;;;;;4955287;29;20039;-78
2022/02/16 13:16:03;;;;;;;7.63;5.55;;;;;;;;;;4957284;29;20062;-73
2022/02/16 13:18:31;;;;;;;7.65;5.20;;;;;;;;;;4952006;29;20410;-76
2022/02/16 13:21:10;;;;;;;11.55;5.15;;;;;;;;;;4937762;29;20079;-76
2022/02/16 13:23:36;;;;;;;11.38;4.78;;;;;;;;;;4938863;29;20024;-77
2022/02/16 13:26:07;;;;;;;6.22;4.40;;;;;;;;;;4938931;29;20024;-76
2022/02/16 13:28:34;;;;;;;7.10;4.65;;;;;;;;;;4947402;29;20027;-77
2022/02/16 13:31:19;;;;;;;6.47;4.65;;;;;;;;;;4938376;29;20083;-76
2022/02/16 13:33:55;;;;;;;6.57;4.45;;;;;;;;;;4939312;29;20052;-77
2022/02/16 13:36:26;;;;;;;13.52;5.22;;;;;;;;;;4937903;29;20770;-76
2022/02/16 13:39:06;;;;;;;6.72;4.18;;;;;;;;;;4936615;29;20031;-77
2022/02/16 13:41:33;;;;;;;7.45;4.63;;;;;;;;;;4938111;29;20047;-76
2022/02/16 13:44:02;;;;;;;5.05;3.97;;;;;;;;;;4939597;29;20508;-76
2022/02/16 13:46:41;;;;;;;13.00;4.80;;;;;;;;;;4937269;29;20028;-77
2022/02/16 13:49:08;;;;;;;6.88;4.93;;;;;;;;;;4936946;29;20063;-77
2022/02/16 13:51:35;;;;;;;6.68;4.63;;;;;;;;;;4937390;29;20086;-75
2022/02/16 13:54:02;;;;;;;6.63;4.60;;;;;;;;;;4922714;29;20046;-76
2022/02/16 13:56:30;;;;;;;7.05;3.97;;;;;;;;;;4938535;29;20019;-77
2022/02/16 13:59:06;;;;;;;34.38;20.90;;;;;;;;;;4937147;29;20027;-77
2022/02/16 14:01:32;;;;;;;7.50;4.70;;;;;;;;;;4934618;29;20031;-77
2022/02/16 14:04:05;;;;;;;6.25;4.93;;;;;;;;;;4936659;29;20118;-77
2022/02/16 14:06:32;;;;;;;8.82;4.80;;;;;;;;;;4938294;29;20046;-77
2022/02/16 14:08:58;;;;;;;8.20;5.07;;;;;;;;;;4934706;29;20572;-78
2022/02/16 14:11:25;;;;;;;7.95;4.65;;;;;;;;;;4936833;29;20617;-78
2022/02/16 14:13:51;;;;;;;7.43;4.90;;;;;;;;;;4940638;29;20035;-76
2022/02/16 14:16:20;;;;;;;8.57;5.43;;;;;;;;;;4933977;29;20020;-76
2022/02/16 14:19:22;;;;;;;10.23;4.93;;;;;;;;;;4933648;29;20038;-75
2022/02/16 14:21:32;;;;;;;12.65;7.82;;;;;;;;;;4934592;29;20031;-76
2022/02/16 14:24:01;;;;;;;12.65;8.60;;;;;;;;;;4936244;29;20115;-76
2022/02/16 14:26:27;;;;;;;14.38;9.27;;;;;;;;;;4916162;29;20030;-75
2022/02/16 14:28:53;;;;;;;15.00;9.57;;;;;;;;;;4917536;29;20533;-75
2022/02/16 14:31:19;;;;;;;12.85;8.93;;;;;;;;;;4934949;29;20028;-74
2022/02/16 14:33:45;;;;;;;12.60;8.23;;;;;;;;;;4934587;29;20072;-75
2022/02/16 14:36:12;;;;;;;11.25;8.10;;;;;;;;;;4935330;29;20020;-75
2022/02/16 14:38:38;;;;;;;11.98;8.20;;;;;;;;;;4933667;29;20035;-75
2022/02/16 14:41:04;;;;;;;11.98;7.63;;;;;;;;;;4934917;29;20054;-77